createdAt,value
2018-05-03T00:01:31.470Z,13.19
2018-05-03T00:03:58.963Z,13.18
2018-05-03T00:06:26.475Z,13.12
2018-05-03T00:08:53.966Z,13.12
2018-05-03T00:11:21.483Z,13.10
2018-05-03T00:13:48.978Z,13.06
2018-05-03T00:16:16.492Z,13.09
2018-05-03T00:18:43.983Z,13.16
2018-05-03T00:21:11.494Z,13.22
2018-05-03T00:23:38.976Z,13.24
2018-05-03T00:26:06.497Z,13.28
2018-05-03T00:28:34.002Z,13.31
2018-05-03T00:31:01.511Z,13.33
2018-05-03T00:33:28.997Z,13.35
2018-05-03T00:35:56.510Z,13.40
2018-05-03T00:38:23.999Z,13.43
2018-05-03T00:40:51.505Z,13.44
2018-05-03T00:43:18.988Z,13.45
2018-05-03T00:45:46.477Z,13.43
2018-05-03T00:48:13.985Z,13.39
2018-05-03T00:50:41.469Z,13.39
2018-05-03T00:53:08.980Z,13.35
2018-05-03T00:55:36.460Z,13.31
2018-05-03T00:58:03.961Z,13.25
2018-05-03T01:00:31.455Z,13.20
2018-05-03T01:02:58.956Z,13.11
2018-05-03T01:05:27.326Z,13.04
2018-05-03T01:07:54.831Z,13.02
2018-05-03T01:10:22.324Z,12.98
2018-05-03T01:12:49.836Z,12.91
2018-05-03T01:15:17.326Z,12.87
2018-05-03T01:17:44.836Z,12.83
2018-05-03T01:20:12.333Z,12.80
2018-05-03T01:22:39.840Z,12.76
2018-05-03T01:25:07.335Z,12.73
2018-05-03T01:27:34.902Z,12.58
2018-05-03T01:30:02.390Z,12.69
2018-05-03T01:32:29.903Z,12.65
2018-05-03T01:35:09.318Z,12.63
2018-05-03T01:37:36.829Z,12.57
2018-05-03T01:40:04.331Z,12.53
2018-05-03T01:42:31.815Z,12.48
2018-05-03T01:44:59.318Z,12.46
2018-05-03T01:47:26.814Z,12.41
2018-05-03T01:49:54.320Z,12.39
2018-05-03T01:52:21.811Z,12.36
2018-05-03T01:54:49.317Z,12.33
2018-05-03T01:57:16.810Z,12.32
2018-05-03T01:59:44.315Z,12.33
2018-05-03T02:02:11.833Z,12.27
2018-05-03T02:04:39.358Z,12.17
2018-05-03T02:07:06.857Z,12.07
2018-05-03T02:09:34.366Z,11.98
2018-05-03T02:12:01.863Z,11.95
2018-05-03T02:14:29.382Z,11.91
2018-05-03T02:16:56.871Z,11.89
2018-05-03T02:19:24.390Z,11.87
2018-05-03T02:21:51.881Z,11.84
2018-05-03T02:24:19.401Z,11.84
2018-05-03T02:26:46.902Z,11.86
2018-05-03T02:29:14.414Z,11.86
2018-05-03T02:31:41.903Z,11.88
2018-05-03T02:34:09.425Z,11.86
2018-05-03T02:36:36.919Z,11.85
2018-05-03T02:39:04.412Z,11.84
2018-05-03T02:41:31.913Z,11.85
2018-05-03T02:43:59.396Z,11.88
2018-05-03T02:46:26.907Z,11.91
2018-05-03T02:48:54.393Z,11.94
2018-05-03T02:51:21.902Z,11.95
2018-05-03T02:53:49.391Z,11.99
2018-05-03T02:56:16.897Z,12.01
2018-05-03T02:58:56.372Z,12.00
2018-05-03T03:01:41.567Z,11.99
2018-05-03T03:07:51.997Z,11.99
2018-05-03T03:17:11.218Z,12.05
2018-05-03T03:23:09.490Z,12.07
2018-05-03T03:25:54.517Z,12.12
2018-05-03T03:28:39.548Z,12.17
2018-05-03T03:31:24.405Z,12.21
2018-05-03T03:37:22.061Z,12.32
2018-05-03T03:40:06.958Z,12.26
2018-05-03T03:45:30.061Z,12.22
2018-05-03T03:47:57.581Z,12.23
2018-05-03T03:50:25.079Z,12.24
2018-05-03T03:52:52.586Z,12.18
2018-05-03T03:55:20.070Z,12.22
2018-05-03T03:57:47.583Z,12.26
2018-05-03T04:00:15.072Z,12.31
2018-05-03T04:02:42.581Z,12.36
2018-05-03T04:05:10.069Z,12.38
2018-05-03T04:07:37.587Z,12.44
2018-05-03T04:10:05.070Z,12.45
2018-05-03T04:12:32.559Z,12.43
2018-05-03T04:15:00.078Z,12.48
2018-05-03T04:17:39.330Z,12.53
2018-05-03T04:20:19.457Z,12.52
2018-05-03T04:22:59.811Z,12.50
2018-05-03T04:25:39.201Z,12.55
2018-05-03T04:28:06.693Z,12.60
2018-05-03T04:30:34.202Z,12.67
2018-05-03T04:33:01.695Z,12.64
2018-05-03T04:35:29.205Z,12.72
2018-05-03T04:37:56.720Z,12.71
2018-05-03T04:40:24.253Z,12.80
2018-05-03T04:42:51.741Z,12.80
2018-05-03T04:45:19.244Z,12.90
2018-05-03T04:47:46.752Z,12.97
2018-05-03T04:50:14.351Z,13.08
2018-05-03T04:52:41.838Z,13.12
2018-05-03T04:55:09.343Z,13.09
2018-05-03T04:57:36.833Z,13.15
2018-05-03T05:00:04.356Z,13.17
2018-05-03T05:02:31.863Z,13.26
2018-05-03T05:04:59.359Z,13.42
2018-05-03T05:07:26.870Z,13.44
2018-05-03T05:09:54.361Z,13.52
2018-05-03T05:12:21.869Z,13.49
2018-05-03T05:14:49.416Z,13.58
2018-05-03T05:17:16.921Z,13.68
2018-05-03T05:19:44.406Z,13.83
2018-05-03T05:22:11.919Z,13.90
2018-05-03T05:24:39.410Z,14.02
2018-05-03T05:27:06.920Z,14.08
2018-05-03T05:29:34.405Z,14.10
2018-05-03T05:32:01.914Z,14.11
2018-05-03T05:34:29.415Z,14.20
2018-05-03T05:36:56.936Z,14.46
2018-05-03T05:39:24.425Z,14.79
2018-05-03T05:41:51.940Z,15.28
2018-05-03T05:44:19.489Z,16.03
2018-05-03T05:46:46.956Z,16.76
2018-05-03T05:49:14.450Z,17.13
2018-05-03T05:51:42.010Z,17.81
2018-05-03T05:54:09.502Z,18.90
2018-05-03T05:56:37.048Z,18.99
2018-05-03T05:59:04.552Z,18.88
2018-05-03T06:01:32.152Z,19.01
2018-05-03T06:03:59.669Z,18.72
2018-05-03T06:06:27.176Z,18.64
2018-05-03T06:08:54.691Z,18.52
2018-05-03T06:11:22.194Z,18.49
2018-05-03T06:13:49.709Z,19.23
2018-05-03T06:16:17.259Z,19.73
2018-05-03T06:18:44.770Z,19.97
2018-05-03T06:21:12.270Z,20.31
2018-05-03T06:23:39.777Z,20.53
2018-05-03T06:26:07.276Z,21.24
2018-05-03T06:28:34.804Z,22.41
2018-05-03T06:31:02.309Z,23.21
2018-05-03T06:33:29.827Z,22.03
2018-05-03T06:35:57.322Z,22.13
2018-05-03T06:38:24.833Z,21.78
2018-05-03T06:40:52.338Z,22.06
2018-05-03T06:43:19.845Z,22.94
2018-05-03T06:45:47.346Z,23.92
2018-05-03T06:48:14.862Z,24.29
2018-05-03T06:50:42.358Z,25.29
2018-05-03T06:53:09.849Z,24.75
2018-05-03T06:55:37.359Z,25.64
2018-05-03T06:58:04.863Z,26.04
2018-05-03T07:00:32.378Z,26.68
2018-05-03T07:02:59.870Z,26.72
2018-05-03T07:05:27.383Z,27.17
2018-05-03T07:07:54.865Z,27.47
2018-05-03T07:10:22.387Z,26.94
2018-05-03T07:12:49.880Z,27.02
2018-05-03T07:15:17.400Z,27.64
2018-05-03T07:17:44.885Z,27.75
2018-05-03T07:20:12.397Z,27.98
2018-05-03T07:22:39.894Z,27.52
2018-05-03T07:25:07.418Z,28.10
2018-05-03T07:27:34.943Z,27.22
2018-05-03T07:30:02.493Z,25.69
2018-05-03T07:32:30.001Z,25.09
2018-05-03T07:34:57.506Z,24.59
2018-05-03T07:37:24.994Z,24.90
2018-05-03T07:39:52.502Z,23.89
2018-05-03T07:42:19.989Z,23.36
2018-05-03T07:44:47.498Z,24.73
2018-05-03T07:47:14.994Z,25.43
2018-05-03T07:49:42.480Z,25.75
2018-05-03T07:52:10.000Z,25.11
2018-05-03T07:54:37.489Z,25.79
2018-05-03T07:57:04.996Z,25.08
2018-05-03T07:59:32.485Z,24.69
2018-05-03T08:02:00.052Z,24.89
2018-05-03T08:04:27.526Z,25.25
2018-05-03T08:06:55.052Z,26.94
2018-05-03T08:09:22.547Z,26.99
2018-05-03T08:11:50.062Z,28.07
2018-05-03T08:14:17.555Z,27.76
2018-05-03T08:16:45.080Z,27.42
2018-05-03T08:19:12.573Z,27.08
2018-05-03T08:21:40.085Z,27.43
2018-05-03T08:24:07.573Z,27.74
2018-05-03T08:26:35.086Z,27.62
2018-05-03T08:29:02.574Z,27.75
2018-05-03T08:31:30.109Z,28.64
2018-05-03T08:33:57.592Z,27.48
2018-05-03T08:36:25.106Z,25.95
2018-05-03T08:38:52.602Z,24.54
2018-05-03T08:41:20.109Z,23.87
2018-05-03T08:43:47.615Z,22.15
2018-05-03T08:46:15.108Z,22.98
2018-05-03T08:48:42.639Z,22.86
2018-05-03T08:51:10.137Z,23.56
2018-05-03T08:53:37.663Z,23.37
2018-05-03T08:56:05.171Z,23.03
2018-05-03T08:58:33.541Z,22.37
2018-05-03T09:01:01.059Z,22.88
2018-05-03T09:03:28.574Z,21.25
2018-05-03T09:05:56.070Z,20.59
2018-05-03T09:08:23.600Z,20.76
2018-05-03T09:10:51.090Z,20.85
2018-05-03T09:13:18.616Z,20.54
2018-05-03T09:15:46.110Z,20.54
2018-05-03T09:18:13.633Z,20.31
2018-05-03T09:20:41.118Z,20.93
2018-05-03T09:23:08.641Z,21.07
2018-05-03T09:25:36.139Z,21.48
2018-05-03T09:28:03.663Z,22.42
2018-05-03T09:30:31.166Z,22.44
2018-05-03T09:32:58.688Z,22.29
2018-05-03T09:35:26.187Z,22.02
2018-05-03T09:37:53.697Z,23.74
2018-05-03T09:40:21.240Z,23.34
2018-05-03T09:42:48.729Z,22.18
2018-05-03T09:45:16.240Z,23.10
2018-05-03T09:47:43.734Z,23.32
2018-05-03T09:50:11.250Z,23.47
2018-05-03T09:52:38.749Z,22.72
2018-05-03T09:55:06.275Z,22.69
2018-05-03T09:57:33.780Z,23.52
2018-05-03T10:00:01.299Z,22.98
2018-05-03T10:02:28.795Z,22.94
2018-05-03T10:04:56.315Z,23.42
2018-05-03T10:07:23.813Z,23.47
2018-05-03T10:09:51.344Z,24.81
2018-05-03T10:12:18.833Z,24.18
2018-05-03T10:14:46.345Z,25.68
2018-05-03T10:17:13.851Z,25.59
2018-05-03T10:19:41.379Z,26.41
2018-05-03T10:22:08.888Z,26.82
2018-05-03T10:24:36.398Z,26.91
2018-05-03T10:27:03.897Z,24.88
2018-05-03T10:29:31.412Z,24.05
2018-05-03T10:31:58.916Z,22.96
2018-05-03T10:34:26.437Z,23.06
2018-05-03T10:36:53.921Z,23.90
2018-05-03T10:39:21.405Z,24.49
2018-05-03T10:41:48.909Z,25.04
2018-05-03T10:44:16.398Z,27.02
2018-05-03T10:46:43.915Z,27.69
2018-05-03T10:49:11.416Z,27.67
2018-05-03T10:51:38.980Z,29.46
2018-05-03T10:54:06.479Z,29.45
2018-05-03T10:56:34.002Z,26.21
2018-05-03T10:59:01.507Z,27.45
2018-05-03T11:01:29.028Z,26.07
2018-05-03T11:03:56.518Z,26.44
2018-05-03T11:06:24.034Z,27.12
2018-05-03T11:08:51.525Z,27.18
2018-05-03T11:11:19.034Z,26.45
2018-05-03T11:13:46.526Z,26.52
2018-05-03T11:16:14.042Z,27.95
2018-05-03T11:18:41.546Z,28.60
2018-05-03T11:21:09.061Z,29.38
2018-05-03T11:23:36.558Z,27.63
2018-05-03T11:26:04.167Z,27.00
2018-05-03T11:28:31.649Z,26.20
2018-05-03T11:30:59.174Z,26.78
2018-05-03T11:33:26.664Z,27.43
2018-05-03T11:35:54.399Z,26.24
2018-05-03T11:38:21.907Z,26.07
2018-05-03T11:40:49.510Z,25.49
2018-05-03T11:43:17.027Z,23.61
2018-05-03T11:45:44.592Z,24.49
2018-05-03T11:48:12.130Z,24.34
2018-05-03T11:50:39.673Z,23.78
2018-05-03T11:53:07.208Z,24.07
2018-05-03T11:55:34.751Z,24.84
2018-05-03T11:58:02.262Z,24.32
2018-05-03T12:00:29.771Z,23.57
2018-05-03T12:02:57.443Z,23.80
2018-05-03T12:05:24.948Z,23.64
2018-05-03T12:07:52.464Z,24.17
2018-05-03T12:10:19.964Z,24.78
2018-05-03T12:12:47.481Z,24.55
2018-05-03T12:15:14.977Z,24.55
2018-05-03T12:17:42.486Z,23.75
2018-05-03T12:20:09.980Z,23.37
2018-05-03T12:22:37.497Z,23.52
2018-05-03T12:25:05.786Z,24.18
2018-05-03T12:27:33.670Z,23.64
2018-05-03T12:30:01.246Z,24.17
2018-05-03T12:32:28.690Z,24.85
2018-05-03T12:34:56.279Z,25.33
2018-05-03T12:37:23.720Z,25.20
2018-05-03T12:39:51.229Z,24.31
2018-05-03T12:42:18.730Z,23.39
2018-05-03T12:44:46.253Z,22.90
2018-05-03T12:47:13.757Z,23.47
2018-05-03T12:49:41.289Z,24.14
2018-05-03T12:52:08.787Z,24.24
2018-05-03T12:54:36.314Z,23.72
2018-05-03T12:57:03.809Z,24.24
2018-05-03T12:59:31.339Z,22.94
2018-05-03T13:01:58.837Z,22.51
2018-05-03T13:04:26.350Z,22.49
2018-05-03T13:06:53.847Z,22.34
2018-05-03T13:09:21.365Z,22.42
2018-05-03T13:11:48.871Z,22.43
2018-05-03T13:14:16.401Z,22.29
2018-05-03T13:16:43.913Z,22.53
2018-05-03T13:19:11.428Z,22.91
2018-05-03T13:21:38.929Z,22.94
2018-05-03T13:24:06.454Z,23.05
2018-05-03T13:26:33.957Z,23.15
2018-05-03T13:29:01.465Z,23.30
2018-05-03T13:31:28.987Z,22.93
2018-05-03T13:33:56.494Z,22.22
2018-05-03T13:36:24.018Z,21.90
2018-05-03T13:38:51.514Z,21.87
2018-05-03T13:41:19.065Z,22.21
2018-05-03T13:43:46.555Z,22.25
2018-05-03T13:46:14.127Z,22.40
2018-05-03T13:48:41.627Z,22.76
2018-05-03T13:51:09.155Z,22.84
2018-05-03T13:53:36.648Z,22.48
2018-05-03T13:56:04.171Z,22.52
2018-05-03T13:58:31.681Z,22.61
2018-05-03T14:00:59.209Z,22.49
2018-05-03T14:03:26.700Z,22.36
2018-05-03T14:05:54.481Z,22.15
2018-05-03T14:08:21.978Z,21.60
2018-05-03T14:10:49.551Z,21.35
2018-05-03T14:13:17.081Z,21.43
2018-05-03T14:15:44.592Z,21.67
2018-05-03T14:18:12.117Z,21.85
2018-05-03T14:20:39.634Z,22.03
2018-05-03T14:23:07.125Z,22.06
2018-05-03T14:25:34.622Z,22.10
2018-05-03T14:28:02.192Z,22.27
2018-05-03T14:30:29.790Z,22.37
2018-05-03T14:32:57.303Z,21.98
2018-05-03T14:37:49.873Z,21.63
2018-05-03T14:40:17.362Z,21.31
2018-05-03T14:42:44.869Z,21.66
2018-05-03T14:45:12.374Z,21.42
2018-05-03T14:47:39.897Z,21.56
2018-05-03T14:50:07.397Z,21.76
2018-05-03T14:52:34.971Z,21.19
2018-05-03T14:55:02.471Z,21.03
2018-05-03T14:57:30.001Z,21.15
2018-05-03T14:59:57.511Z,21.05
2018-05-03T15:02:25.040Z,20.88
2018-05-03T15:04:52.535Z,20.92
2018-05-03T15:07:20.056Z,20.78
2018-05-03T15:09:47.556Z,20.93
2018-05-03T15:12:15.078Z,20.69
2018-05-03T15:14:42.578Z,20.88
2018-05-03T15:17:10.102Z,20.71
2018-05-03T15:19:37.596Z,20.70
2018-05-03T15:22:05.093Z,20.71
2018-05-03T15:24:32.632Z,20.72
2018-05-03T15:27:00.270Z,20.71
2018-05-03T15:29:27.809Z,20.79
2018-05-03T15:31:55.301Z,20.90
2018-05-03T15:34:22.843Z,20.89
2018-05-03T15:36:50.345Z,20.78
2018-05-03T15:39:17.946Z,21.05
2018-05-03T15:41:45.382Z,21.14
2018-05-03T15:44:12.906Z,21.18
2018-05-03T15:46:40.406Z,21.21
2018-05-03T15:49:07.924Z,21.26
2018-05-03T15:51:35.471Z,21.28
2018-05-03T15:54:03.641Z,21.16
2018-05-03T15:56:31.160Z,21.46
2018-05-03T15:58:58.680Z,21.06
2018-05-03T16:01:26.208Z,20.82
2018-05-03T16:03:53.742Z,20.72
2018-05-03T16:06:21.283Z,20.69
2018-05-03T16:08:48.816Z,20.50
2018-05-03T16:11:16.314Z,20.40
2018-05-03T16:13:43.819Z,20.48
2018-05-03T16:16:11.532Z,20.23
2018-05-03T16:18:39.062Z,20.05
2018-05-03T16:21:06.598Z,19.89
2018-05-03T16:23:34.099Z,19.87
2018-05-03T16:26:01.616Z,19.75
2018-05-03T16:28:29.119Z,19.65
2018-05-03T16:30:56.644Z,19.54
2018-05-03T16:33:24.146Z,19.51
2018-05-03T16:35:51.674Z,19.47
2018-05-03T16:38:19.214Z,19.45
2018-05-03T16:40:46.745Z,19.32
2018-05-03T16:43:14.290Z,19.26
2018-05-03T16:45:41.802Z,19.19
2018-05-03T16:48:09.307Z,19.13
2018-05-03T16:50:36.812Z,18.95
2018-05-03T16:53:04.306Z,18.84
2018-05-03T16:55:31.855Z,18.81
2018-05-03T16:57:59.419Z,18.75
2018-05-03T17:00:26.937Z,18.77
2018-05-03T17:02:54.430Z,18.78
2018-05-03T17:05:21.952Z,18.73
2018-05-03T17:07:49.451Z,18.77
2018-05-03T17:10:16.946Z,18.78
2018-05-03T17:12:44.449Z,18.79
2018-05-03T17:15:11.950Z,18.77
2018-05-03T17:17:39.467Z,18.71
2018-05-03T17:20:07.009Z,18.71
2018-05-03T17:22:34.530Z,18.67
2018-05-03T17:25:02.017Z,18.68
2018-05-03T17:27:29.530Z,18.67
2018-05-03T17:29:57.035Z,18.65
2018-05-03T17:32:24.541Z,18.65
2018-05-03T17:34:52.030Z,18.68
2018-05-03T17:37:19.560Z,18.66
2018-05-03T17:39:47.054Z,18.68
2018-05-03T17:42:14.568Z,18.62
2018-05-03T17:44:42.064Z,18.63
2018-05-03T17:47:09.606Z,18.62
2018-05-03T17:49:37.114Z,18.62
2018-05-03T17:52:04.635Z,18.63
2018-05-03T17:54:32.130Z,18.65
2018-05-03T17:56:59.665Z,18.62
2018-05-03T17:59:27.182Z,18.66
2018-05-03T18:01:54.711Z,18.65
2018-05-03T18:04:22.261Z,18.64
2018-05-03T18:06:49.734Z,18.61
2018-05-03T18:09:17.255Z,18.58
2018-05-03T18:11:44.751Z,18.56
2018-05-03T18:14:12.278Z,18.51
2018-05-03T18:16:39.787Z,18.49
2018-05-03T18:19:07.306Z,18.47
2018-05-03T18:21:34.806Z,18.48
2018-05-03T18:24:02.322Z,18.32
2018-05-03T18:26:29.817Z,18.45
2018-05-03T18:28:57.339Z,18.40
2018-05-03T18:31:24.834Z,18.40
2018-05-03T18:33:52.356Z,18.34
2018-05-03T18:36:19.853Z,18.31
2018-05-03T18:38:47.374Z,18.28
2018-05-03T18:41:14.899Z,18.26
2018-05-03T18:43:42.438Z,18.18
2018-05-03T18:46:09.947Z,18.17
2018-05-03T18:48:37.462Z,18.11
2018-05-03T18:51:04.992Z,18.06
2018-05-03T18:53:32.538Z,18.00
2018-05-03T18:56:00.048Z,17.92
2018-05-03T18:58:27.569Z,17.82
2018-05-03T19:00:55.085Z,17.75
2018-05-03T19:03:22.579Z,17.58
2018-05-03T19:05:50.093Z,17.51
2018-05-03T19:08:17.587Z,17.48
2018-05-03T19:10:45.102Z,17.36
2018-05-03T19:13:12.653Z,17.32
2018-05-03T19:15:40.126Z,17.29
2018-05-03T19:18:07.605Z,17.25
2018-05-03T19:20:35.124Z,17.20
2018-05-03T19:23:02.623Z,17.11
2018-05-03T19:25:30.137Z,17.09
2018-05-03T19:27:57.624Z,17.04
2018-05-03T19:30:25.129Z,17.00
2018-05-03T19:32:52.624Z,16.88
2018-05-03T19:35:20.142Z,16.84
2018-05-03T19:37:47.628Z,16.82
2018-05-03T19:40:15.137Z,16.80
2018-05-03T19:42:42.625Z,16.74
2018-05-03T19:45:10.147Z,16.66
2018-05-03T19:47:37.655Z,16.64
2018-05-03T19:50:05.182Z,16.65
2018-05-03T19:52:32.673Z,16.59
2018-05-03T19:55:00.165Z,16.62
2018-05-03T19:57:27.665Z,16.53
2018-05-03T19:59:55.166Z,16.51
2018-05-03T20:02:22.677Z,16.42
2018-05-03T20:04:50.165Z,16.40
2018-05-03T20:07:17.693Z,16.36
2018-05-03T20:09:45.187Z,16.29
2018-05-03T20:12:12.779Z,16.23
2018-05-03T20:14:40.267Z,16.22
2018-05-03T20:17:07.782Z,16.20
2018-05-03T20:19:35.278Z,16.13
2018-05-03T20:22:02.786Z,16.15
2018-05-03T20:24:30.269Z,16.14
2018-05-03T20:26:57.810Z,16.13
2018-05-03T20:29:25.302Z,16.10
2018-05-03T20:31:52.822Z,16.07
2018-05-03T20:34:20.325Z,16.04
2018-05-03T20:36:47.833Z,16.03
2018-05-03T20:39:15.321Z,15.98
2018-05-03T20:41:42.834Z,15.98
2018-05-03T20:44:10.321Z,15.95
2018-05-03T20:46:37.893Z,15.94
2018-05-03T20:49:05.387Z,15.86
2018-05-03T20:51:33.743Z,15.80
2018-05-03T20:54:01.253Z,15.89
2018-05-03T20:56:28.758Z,15.92
2018-05-03T20:58:56.290Z,15.70
2018-05-03T21:01:23.773Z,15.89
2018-05-03T21:03:51.308Z,15.90
2018-05-03T21:06:18.801Z,15.91
2018-05-03T21:08:46.323Z,15.96
2018-05-03T21:11:13.824Z,15.96
2018-05-03T21:13:41.346Z,15.93
2018-05-03T21:16:08.830Z,16.06
2018-05-03T21:18:36.344Z,16.07
2018-05-03T21:21:03.839Z,16.04
2018-05-03T21:23:31.352Z,16.05
2018-05-03T21:25:58.850Z,16.04
2018-05-03T21:28:26.359Z,16.03
2018-05-03T21:30:53.859Z,15.95
2018-05-03T21:33:21.374Z,15.87
2018-05-03T21:35:48.874Z,15.83
2018-05-03T21:38:16.397Z,15.76
2018-05-03T21:40:43.894Z,15.55
2018-05-03T21:43:11.438Z,15.65
2018-05-03T21:45:38.930Z,15.66
2018-05-03T21:48:06.431Z,15.61
2018-05-03T21:50:33.959Z,15.57
2018-05-03T21:53:01.485Z,15.52
2018-05-03T21:55:28.998Z,15.45
2018-05-03T21:57:56.484Z,15.47
2018-05-03T22:00:24.006Z,15.41
2018-05-03T22:02:51.501Z,15.34
2018-05-03T22:05:19.019Z,15.28
2018-05-03T22:07:46.569Z,15.24
2018-05-03T22:10:14.072Z,15.21
2018-05-03T22:12:41.561Z,15.18
2018-05-03T22:15:09.070Z,15.14
2018-05-03T22:17:36.564Z,15.21
2018-05-03T22:20:04.083Z,15.12
2018-05-03T22:22:31.570Z,15.03
2018-05-03T22:24:59.077Z,15.05
2018-05-03T22:27:26.577Z,14.99
2018-05-03T22:29:54.132Z,14.91
2018-05-03T22:32:21.628Z,14.96
2018-05-03T22:34:49.145Z,14.92
2018-05-03T22:37:16.639Z,14.85
2018-05-03T22:39:44.162Z,14.87
2018-05-03T22:42:11.856Z,14.84
2018-05-03T22:44:39.381Z,14.83
2018-05-03T22:47:06.902Z,14.80
2018-05-03T22:49:34.393Z,14.88
2018-05-03T22:52:01.912Z,14.80
2018-05-03T22:54:29.418Z,14.73
2018-05-03T22:56:56.929Z,14.69
2018-05-03T22:59:24.430Z,14.72
2018-05-03T23:01:51.959Z,14.73
2018-05-03T23:04:19.450Z,14.67
2018-05-03T23:06:46.972Z,14.60
2018-05-03T23:09:14.460Z,14.57
2018-05-03T23:11:41.980Z,14.57
2018-05-03T23:14:09.481Z,14.49
2018-05-03T23:16:36.997Z,14.42
2018-05-03T23:19:04.499Z,14.40
2018-05-03T23:21:32.022Z,14.38
2018-05-03T23:23:59.524Z,14.38
2018-05-03T23:26:27.049Z,14.37
2018-05-03T23:28:54.545Z,14.29
2018-05-03T23:31:22.063Z,14.20
2018-05-03T23:33:49.557Z,14.18
2018-05-03T23:36:17.053Z,14.18
2018-05-03T23:38:44.570Z,14.20
2018-05-03T23:41:12.071Z,14.10
2018-05-03T23:43:39.589Z,14.11
2018-05-03T23:46:07.091Z,14.09
2018-05-03T23:48:34.606Z,14.04
2018-05-03T23:51:02.102Z,13.99
2018-05-03T23:53:29.621Z,13.98
2018-05-03T23:55:57.117Z,13.98
2018-05-03T23:58:24.633Z,13.97
